Pagrindinis puslapis
METAR-TAF:

METAR-TAF

Oro uostai :

Sandane, Norvegija

platuma: 61-50N, ilguma: 006-07E, Aukštis: 6 m

Dabartinis oras

Ataskaita buvo paskelbta 18 minutes, ne 13:20 UTC
Vėjas 7 kt iš Rytų/Šiaurės Rytų
Temperatūra 4°C
Drėgmė 93%
Slėgis 1002 hPa
Matomumas 10 km arba daugiau
Mažai debesys ne aukštis 500 ft
Išsisklaidę debesys ne aukštis 3200 ft
Su prošvaistėmis ne aukštis 4900 ft

METAR: ENSD 191320Z 07007KT 9999 FEW005 SCT032 BKN049 04/03 Q1002 RMK WIND 1138FT 06003KT

Laikas: 14:38 (13:38 UTC)


TAF: trūkstamas

Orai ataskaitas ir orų prognozės (METAR, TAF).

turimą stotys yra geltonos ir raudonos taškus žemėlapyje.

Perkelti pele per norėdami pamatyti stoties vardą.

Tada spustelėkite, norėdami matyti oro stebėjimo ir prognozės.

Norėdami pakeisti žemėlapį: spustelėkite ant žalios mygtukų su juodo kryžiaus žemyn,; žalią mygtuką su brūkšneliu, jei norite nutolinti; arba žalių rodyklių gretimoms žemėlapius.


METAR-TAF: